createdAt,value
2019-05-18T00:00:52.907Z,100597.41
2019-05-18T00:03:25.772Z,100585.08
2019-05-18T00:05:58.677Z,100581.56
2019-05-18T00:08:31.476Z,100586.84
2019-05-18T00:11:04.504Z,100584.23
2019-05-18T00:13:37.315Z,100582.00
2019-05-18T00:16:10.122Z,100587.28
2019-05-18T00:18:42.940Z,100582.44
2019-05-18T00:21:15.887Z,100580.68
2019-05-18T00:23:48.755Z,100575.84
2019-05-18T00:26:21.701Z,100576.72
2019-05-18T00:28:54.845Z,100575.84
2019-05-18T00:31:27.730Z,100574.96
2019-05-18T00:34:00.592Z,100575.41
2019-05-18T00:36:33.511Z,100578.48
2019-05-18T00:39:07.692Z,100589.45
2019-05-18T00:41:40.527Z,100590.77
2019-05-18T00:44:13.332Z,100592.97
2019-05-18T00:46:46.267Z,100593.85
2019-05-18T00:49:19.159Z,100592.56
2019-05-18T00:51:52.071Z,100593.00
2019-05-18T00:54:24.925Z,100593.00
2019-05-18T00:56:57.775Z,100600.95
2019-05-18T00:59:30.653Z,100592.59
2019-05-18T01:02:03.458Z,100590.83
2019-05-18T01:04:36.390Z,100587.75
2019-05-18T01:07:09.253Z,100584.67
2019-05-18T01:09:42.250Z,100577.19
2019-05-18T01:12:15.226Z,100579.36
2019-05-18T01:14:49.223Z,100588.16
2019-05-18T01:17:23.531Z,100581.56
2019-05-18T01:19:56.732Z,100578.92
2019-05-18T01:22:31.182Z,100579.80
2019-05-18T01:25:04.330Z,100573.20
2019-05-18T01:27:38.346Z,100575.84
2019-05-18T01:30:11.695Z,100574.08
2019-05-18T01:32:44.612Z,100578.48
2019-05-18T01:35:17.929Z,100572.73
2019-05-18T01:37:50.755Z,100575.84
2019-05-18T01:40:23.650Z,100564.40
2019-05-18T01:42:56.538Z,100571.44
2019-05-18T01:45:30.336Z,100572.29
2019-05-18T01:48:13.357Z,100569.68
2019-05-18T01:50:37.663Z,100574.52
2019-05-18T01:53:11.509Z,100571.44
2019-05-18T01:55:44.380Z,100576.28
2019-05-18T01:58:17.462Z,100579.36
2019-05-18T02:00:51.331Z,100571.88
2019-05-18T02:03:25.963Z,100573.67
2019-05-18T02:05:58.722Z,100570.58
2019-05-18T02:08:31.550Z,100565.78
2019-05-18T02:11:04.418Z,100561.34
2019-05-18T02:13:37.382Z,100560.02
2019-05-18T02:16:10.161Z,100554.30
2019-05-18T02:18:42.954Z,100545.06
2019-05-18T02:21:15.789Z,100547.70
2019-05-18T02:23:48.769Z,100547.27
2019-05-18T02:26:21.609Z,100546.39
2019-05-18T02:28:54.516Z,100537.15
2019-05-18T02:31:27.332Z,100539.75
2019-05-18T02:34:00.133Z,100542.83
2019-05-18T02:36:33.086Z,100537.55
2019-05-18T02:39:07.725Z,100542.39
2019-05-18T02:41:40.505Z,100538.87
2019-05-18T02:44:13.320Z,100542.43
2019-05-18T02:46:46.137Z,100537.15
2019-05-18T02:49:19.036Z,100533.62
2019-05-18T02:51:51.835Z,100531.02
2019-05-18T02:54:24.657Z,100532.81
2019-05-18T02:56:57.536Z,100520.08
2019-05-18T02:59:30.341Z,100525.80
2019-05-18T03:02:03.125Z,100517.88
2019-05-18T03:04:36.663Z,100516.56
2019-05-18T03:07:09.465Z,100513.48
2019-05-18T03:09:42.391Z,100517.91
2019-05-18T03:12:15.221Z,100515.23
2019-05-18T03:14:48.182Z,100517.46
2019-05-18T03:17:21.001Z,100512.21
2019-05-18T03:19:54.095Z,100509.57
2019-05-18T03:22:26.995Z,100513.12
2019-05-18T03:24:59.882Z,100503.41
2019-05-18T03:27:32.831Z,100508.66
2019-05-18T03:30:05.833Z,100507.34
2019-05-18T03:32:38.740Z,100517.43
2019-05-18T03:35:12.255Z,100516.11
2019-05-18T03:37:45.076Z,100511.28
2019-05-18T03:40:18.111Z,100514.36
2019-05-18T03:42:50.929Z,100502.92
2019-05-18T03:45:23.734Z,100507.73
2019-05-18T03:47:56.659Z,100505.56
2019-05-18T03:50:29.569Z,100500.72
2019-05-18T03:53:02.456Z,100491.45
2019-05-18T03:55:36.454Z,100488.37
2019-05-18T03:58:09.252Z,100491.86
2019-05-18T04:00:42.301Z,100492.70
2019-05-18T04:03:15.197Z,100484.75
2019-05-18T04:05:48.080Z,100486.50
2019-05-18T04:08:21.014Z,100489.06
2019-05-18T04:10:54.734Z,100492.55
2019-05-18T04:13:27.724Z,100495.58
2019-05-18T04:16:00.719Z,100500.86
2019-05-18T04:18:33.717Z,100503.47
2019-05-18T04:21:09.980Z,100504.74
2019-05-18T04:23:42.951Z,100500.34
2019-05-18T04:26:15.922Z,100497.16
2019-05-18T04:28:48.969Z,100501.07
2019-05-18T04:31:21.978Z,100504.09
2019-05-18T04:33:54.787Z,100495.22
2019-05-18T04:36:27.779Z,100498.63
2019-05-18T04:39:00.705Z,100496.77
2019-05-18T04:41:33.765Z,100497.53
2019-05-18T04:44:10.312Z,100493.89
2019-05-18T04:46:43.297Z,100491.12
2019-05-18T04:49:25.960Z,100494.63
2019-05-18T04:51:59.974Z,100484.39
2019-05-18T04:54:35.611Z,100486.90
2019-05-18T04:57:08.987Z,100480.11
2019-05-18T04:59:42.857Z,100488.28
2019-05-18T05:02:15.709Z,100492.58
2019-05-18T05:04:52.652Z,100502.66
2019-05-18T05:07:24.799Z,100495.03
2019-05-18T05:09:58.319Z,100494.45
2019-05-18T05:12:31.241Z,100500.94
2019-05-18T05:15:06.977Z,100499.03
2019-05-18T05:17:40.018Z,100498.22
2019-05-18T05:20:19.698Z,100509.43
2019-05-18T05:22:52.269Z,100509.34
2019-05-18T05:25:25.321Z,100503.80
2019-05-18T05:27:59.268Z,100512.23
2019-05-18T05:30:32.562Z,100514.63
2019-05-18T05:33:05.384Z,100510.94
2019-05-18T05:35:38.293Z,100506.90
2019-05-18T05:38:12.171Z,100511.40
2019-05-18T05:40:45.609Z,100511.27
2019-05-18T05:43:19.212Z,100511.27
2019-05-18T05:45:52.537Z,100507.75
2019-05-18T05:48:25.513Z,100506.98
2019-05-18T05:50:58.581Z,100502.15
2019-05-18T05:53:31.383Z,100502.59
2019-05-18T05:56:04.956Z,100505.72
2019-05-18T05:58:37.853Z,100506.09
2019-05-18T06:01:10.861Z,100501.89
2019-05-18T06:03:43.764Z,100493.78
2019-05-18T06:06:16.727Z,100493.30
2019-05-18T06:08:49.771Z,100494.78
2019-05-18T06:11:22.694Z,100494.86
2019-05-18T06:13:55.669Z,100494.41
2019-05-18T06:16:28.628Z,100499.50
2019-05-18T06:19:01.666Z,100499.47
2019-05-18T06:21:34.978Z,100493.75
2019-05-18T06:24:07.944Z,100500.72
2019-05-18T06:26:40.836Z,100505.18
2019-05-18T06:29:13.827Z,100504.98
2019-05-18T06:31:46.796Z,100504.84
2019-05-18T06:34:19.957Z,100505.84
2019-05-18T06:36:55.843Z,100507.61
2019-05-18T06:39:27.354Z,100506.27
2019-05-18T06:42:00.213Z,100508.39
2019-05-18T06:44:33.100Z,100504.42
2019-05-18T06:47:07.103Z,100502.19
2019-05-18T06:49:39.999Z,100507.65
2019-05-18T06:52:12.924Z,100496.95
2019-05-18T06:54:45.980Z,100490.44
2019-05-18T06:57:19.503Z,100488.02
2019-05-18T06:59:53.239Z,100486.73
2019-05-18T07:02:26.150Z,100495.05
2019-05-18T07:04:58.990Z,100488.05
2019-05-18T07:07:32.172Z,100499.62
2019-05-18T07:10:05.193Z,100491.77
2019-05-18T07:12:38.343Z,100495.05
2019-05-18T07:15:12.102Z,100485.41
2019-05-18T07:17:45.129Z,100489.28
2019-05-18T07:20:18.770Z,100490.60
2019-05-18T07:22:52.500Z,100493.42
2019-05-18T07:25:26.616Z,100493.55
2019-05-18T07:27:59.513Z,100488.11
2019-05-18T07:30:32.354Z,100491.50
2019-05-18T07:33:05.269Z,100487.99
2019-05-18T07:35:38.153Z,100490.19
2019-05-18T07:38:11.034Z,100478.92
2019-05-18T07:40:44.121Z,100470.56
2019-05-18T07:43:17.069Z,100478.70
2019-05-18T07:45:49.880Z,100471.37
2019-05-18T07:48:22.727Z,100471.40
2019-05-18T07:50:55.604Z,100473.20
2019-05-18T07:53:28.439Z,100464.19
2019-05-18T07:56:01.339Z,100468.42
2019-05-18T07:58:36.201Z,100462.59
2019-05-18T08:01:09.002Z,100459.68
2019-05-18T08:03:41.842Z,100456.56
2019-05-18T08:06:14.650Z,100455.54
2019-05-18T08:08:47.492Z,100455.66
2019-05-18T08:11:20.457Z,100452.62
2019-05-18T08:13:53.371Z,100446.44
2019-05-18T08:16:26.249Z,100453.61
2019-05-18T08:18:59.202Z,100457.96
2019-05-18T08:21:32.023Z,100457.36
2019-05-18T08:24:04.884Z,100458.25
2019-05-18T08:26:37.849Z,100460.43
2019-05-18T08:29:11.832Z,100460.30
2019-05-18T08:31:44.722Z,100458.00
2019-05-18T08:34:17.522Z,100448.48
2019-05-18T08:36:50.413Z,100446.61
2019-05-18T08:39:23.284Z,100446.20
2019-05-18T08:41:56.350Z,100446.11
2019-05-18T08:44:29.320Z,100448.59
2019-05-18T08:47:02.514Z,100442.53
2019-05-18T08:49:35.577Z,100435.84
2019-05-18T08:52:08.899Z,100436.74
2019-05-18T08:54:41.906Z,100438.71
2019-05-18T08:57:14.894Z,100433.48
2019-05-18T08:59:47.816Z,100434.06
2019-05-18T09:02:20.750Z,100436.27
2019-05-18T09:04:53.621Z,100431.19
2019-05-18T09:07:26.588Z,100435.67
2019-05-18T09:09:59.439Z,100434.58
2019-05-18T09:12:32.463Z,100433.55
2019-05-18T09:15:06.990Z,100429.81
2019-05-18T09:17:40.266Z,100427.81
2019-05-18T09:20:14.451Z,100426.50
2019-05-18T09:22:47.415Z,100428.48
2019-05-18T09:25:21.456Z,100427.67
2019-05-18T09:27:54.478Z,100421.38
2019-05-18T09:30:27.466Z,100425.93
2019-05-18T09:33:00.449Z,100420.39
2019-05-18T09:35:33.322Z,100420.37
2019-05-18T09:38:06.206Z,100409.61
2019-05-18T09:40:39.061Z,100407.67
2019-05-18T09:43:11.862Z,100413.52
2019-05-18T09:45:44.714Z,100406.37
2019-05-18T09:48:17.969Z,100405.52
2019-05-18T09:50:57.263Z,100410.04
2019-05-18T09:53:31.289Z,100416.17
2019-05-18T09:56:04.244Z,100413.54
2019-05-18T09:58:37.107Z,100410.39
2019-05-18T10:01:09.916Z,100408.75
2019-05-18T10:03:42.776Z,100404.47
2019-05-18T10:06:16.077Z,100404.27
2019-05-18T10:08:49.081Z,100412.21
2019-05-18T10:11:23.094Z,100399.36
2019-05-18T10:13:56.035Z,100403.71
2019-05-18T10:16:28.829Z,100397.20
2019-05-18T10:19:01.768Z,100393.20
2019-05-18T10:21:34.682Z,100395.98
2019-05-18T10:24:07.521Z,100392.02
2019-05-18T10:26:40.352Z,100390.09
2019-05-18T10:29:13.175Z,100388.35
2019-05-18T10:31:46.084Z,100374.88
2019-05-18T10:34:18.991Z,100378.73
2019-05-18T10:36:51.946Z,100379.52
2019-05-18T10:39:24.845Z,100377.89
2019-05-18T10:41:57.756Z,100376.18
2019-05-18T10:44:30.651Z,100373.05
2019-05-18T10:47:03.470Z,100379.94
2019-05-18T10:49:36.255Z,100381.03
2019-05-18T10:52:09.560Z,100379.92
2019-05-18T10:54:42.459Z,100373.02
2019-05-18T10:57:15.442Z,100369.19
2019-05-18T10:59:48.386Z,100370.22
2019-05-18T11:02:21.434Z,100369.52
2019-05-18T11:04:54.366Z,100363.85
2019-05-18T11:07:29.044Z,100360.34
2019-05-18T11:10:02.362Z,100355.81
2019-05-18T11:12:35.397Z,100352.53
2019-05-18T11:15:09.745Z,100349.35
2019-05-18T11:17:42.699Z,100354.14
2019-05-18T11:20:17.837Z,100346.63
2019-05-18T11:22:50.761Z,100353.59
2019-05-18T11:25:23.825Z,100357.70
2019-05-18T11:27:56.688Z,100350.98
2019-05-18T11:30:29.632Z,100350.88
2019-05-18T11:33:02.564Z,100353.26
2019-05-18T11:35:35.542Z,100352.89
2019-05-18T11:38:08.386Z,100357.69
2019-05-18T11:40:41.225Z,100352.70
2019-05-18T11:43:14.302Z,100347.61
2019-05-18T11:45:47.447Z,100354.73
2019-05-18T11:48:20.233Z,100345.49
2019-05-18T11:50:53.218Z,100344.55
2019-05-18T11:53:26.159Z,100342.61
2019-05-18T11:55:58.966Z,100337.80
2019-05-18T11:58:31.824Z,100330.87
2019-05-18T12:01:04.686Z,100339.04
2019-05-18T12:03:37.596Z,100336.68
2019-05-18T12:06:10.739Z,100343.87
2019-05-18T12:08:43.510Z,100337.79
2019-05-18T12:11:16.340Z,100336.72
2019-05-18T12:13:49.277Z,100330.10
2019-05-18T12:16:22.137Z,100339.30
2019-05-18T12:18:57.523Z,100336.22
2019-05-18T12:21:30.288Z,100335.86
2019-05-18T12:24:14.813Z,100331.86
2019-05-18T12:26:37.790Z,100324.57
2019-05-18T12:29:10.576Z,100325.91
2019-05-18T12:31:43.445Z,100329.22
2019-05-18T12:34:16.306Z,100331.78
2019-05-18T12:36:49.199Z,100331.56
2019-05-18T12:39:22.086Z,100330.12
2019-05-18T12:41:54.967Z,100322.72
2019-05-18T12:44:27.826Z,100324.60
2019-05-18T12:47:00.667Z,100324.95
2019-05-18T12:49:33.619Z,100319.78
2019-05-18T12:52:06.609Z,100316.11
2019-05-18T12:54:46.491Z,100318.70
2019-05-18T12:57:14.376Z,100313.78
2019-05-18T12:59:47.241Z,100313.02
2019-05-18T13:02:20.184Z,100314.55
2019-05-18T13:04:54.067Z,100318.42
2019-05-18T13:07:26.997Z,100315.03
2019-05-18T13:09:59.890Z,100305.11
2019-05-18T13:12:32.761Z,100307.77
2019-05-18T13:15:06.856Z,100303.60
2019-05-18T13:17:39.759Z,100307.27
2019-05-18T13:20:13.269Z,100298.33
2019-05-18T13:22:48.275Z,100302.75
2019-05-18T13:25:21.791Z,100296.83
2019-05-18T13:27:54.764Z,100289.41
2019-05-18T13:30:27.819Z,100291.37
2019-05-18T13:33:00.783Z,100289.19
2019-05-18T13:35:33.959Z,100287.24
2019-05-18T13:38:06.900Z,100285.94
2019-05-18T13:40:42.847Z,100274.77
2019-05-18T13:43:15.930Z,100285.64
2019-05-18T13:45:48.910Z,100278.26
2019-05-18T13:48:21.805Z,100280.36
2019-05-18T13:50:54.608Z,100277.19
2019-05-18T13:53:27.592Z,100283.84
2019-05-18T13:56:00.591Z,100279.33
2019-05-18T13:58:33.511Z,100275.14
2019-05-18T14:01:06.791Z,100282.03
2019-05-18T14:03:40.078Z,100280.16
2019-05-18T14:06:13.429Z,100281.48
2019-05-18T14:08:47.048Z,100293.98
2019-05-18T14:11:21.734Z,100287.22
2019-05-18T14:13:54.722Z,100284.84
2019-05-18T14:16:29.657Z,100282.47
2019-05-18T14:19:02.605Z,100277.41
2019-05-18T14:21:35.525Z,100277.02
2019-05-18T14:24:08.414Z,100283.81
2019-05-18T14:26:41.254Z,100278.43
2019-05-18T14:29:14.265Z,100279.62
2019-05-18T14:31:47.260Z,100281.00
2019-05-18T14:34:20.058Z,100281.60
2019-05-18T14:36:52.927Z,100275.03
2019-05-18T14:39:26.240Z,100276.45
2019-05-18T14:41:59.116Z,100275.34
2019-05-18T14:44:32.110Z,100278.23
2019-05-18T14:47:05.297Z,100275.14
2019-05-18T14:49:38.215Z,100269.67
2019-05-18T14:52:12.180Z,100273.68
2019-05-18T14:54:45.529Z,100274.75
2019-05-18T14:57:18.502Z,100272.70
2019-05-18T14:59:51.490Z,100269.12
2019-05-18T15:02:24.420Z,100267.33
2019-05-18T15:04:57.259Z,100269.67
2019-05-18T15:07:30.216Z,100270.27
2019-05-18T15:10:03.049Z,100270.04
2019-05-18T15:12:36.277Z,100273.52
2019-05-18T15:15:10.303Z,100268.22
2019-05-18T15:17:44.079Z,100272.95
2019-05-18T15:20:18.372Z,100268.58
2019-05-18T15:22:51.325Z,100267.12
2019-05-18T15:25:24.291Z,100263.75
2019-05-18T15:27:57.287Z,100265.14
2019-05-18T15:30:30.124Z,100267.98
2019-05-18T15:33:02.987Z,100270.36
2019-05-18T15:35:36.183Z,100260.03
2019-05-18T15:38:09.105Z,100268.54
2019-05-18T15:40:41.967Z,100262.45
2019-05-18T15:43:14.917Z,100257.86
2019-05-18T15:45:47.781Z,100256.25
2019-05-18T15:48:20.753Z,100257.86
2019-05-18T15:50:53.675Z,100253.16
2019-05-18T15:53:26.474Z,100252.80
2019-05-18T15:56:05.806Z,100253.23
2019-05-18T15:58:34.119Z,100252.64
2019-05-18T16:01:07.015Z,100251.73
2019-05-18T16:03:40.277Z,100253.95
2019-05-18T16:06:13.164Z,100245.72
2019-05-18T16:08:46.054Z,100238.05
2019-05-18T16:11:18.934Z,100242.44
2019-05-18T16:13:51.833Z,100236.91
2019-05-18T16:16:24.694Z,100231.60
2019-05-18T16:18:57.693Z,100233.73
2019-05-18T16:21:30.584Z,100233.42
2019-05-18T16:24:03.520Z,100235.16
2019-05-18T16:26:36.510Z,100236.19
2019-05-18T16:29:09.361Z,100238.88
2019-05-18T16:31:42.163Z,100238.56
2019-05-18T16:34:16.101Z,100238.05
2019-05-18T16:36:48.993Z,100232.19
2019-05-18T16:39:21.820Z,100233.89
2019-05-18T16:41:54.702Z,100229.85
2019-05-18T16:44:27.532Z,100230.69
2019-05-18T16:47:00.390Z,100231.19
2019-05-18T16:49:33.250Z,100224.47
2019-05-18T16:52:06.140Z,100223.29
2019-05-18T16:54:39.257Z,100222.61
2019-05-18T16:57:12.078Z,100221.73
2019-05-18T16:59:45.006Z,100220.08
2019-05-18T17:02:30.653Z,100218.66
2019-05-18T17:04:52.520Z,100223.32
2019-05-18T17:07:25.490Z,100229.16
2019-05-18T17:09:58.407Z,100227.22
2019-05-18T17:12:31.205Z,100232.55
2019-05-18T17:15:04.147Z,100233.02
2019-05-18T17:17:37.007Z,100239.52
2019-05-18T17:20:11.737Z,100238.36
2019-05-18T17:22:44.585Z,100236.78
2019-05-18T17:25:17.983Z,100240.59
2019-05-18T17:27:50.794Z,100250.55
2019-05-18T17:30:23.689Z,100237.78
2019-05-18T17:32:57.186Z,100244.64
2019-05-18T17:35:30.025Z,100241.74
2019-05-18T17:38:02.810Z,100243.63
2019-05-18T17:40:35.641Z,100245.70
2019-05-18T17:43:08.636Z,100251.38
2019-05-18T17:45:41.588Z,100254.39
2019-05-18T17:48:14.699Z,100255.11
2019-05-18T17:50:47.840Z,100258.59
2019-05-18T17:53:20.876Z,100261.20
2019-05-18T17:55:53.776Z,100262.39
2019-05-18T17:58:26.760Z,100266.56
2019-05-18T18:00:59.608Z,100267.75
2019-05-18T18:03:32.877Z,100271.23
2019-05-18T18:06:05.969Z,100271.14
2019-05-18T18:08:38.902Z,100272.80
2019-05-18T18:11:12.091Z,100278.73
2019-05-18T18:13:45.123Z,100269.86
2019-05-18T18:16:20.781Z,100272.33
2019-05-18T18:18:53.662Z,100276.28
2019-05-18T18:21:26.768Z,100279.80
2019-05-18T18:23:59.648Z,100278.03
2019-05-18T18:26:32.794Z,100285.59
2019-05-18T18:29:05.856Z,100285.61
2019-05-18T18:31:38.777Z,100278.73
2019-05-18T18:34:12.065Z,100272.27
2019-05-18T18:36:45.423Z,100262.72
2019-05-18T18:39:18.393Z,100257.18
2019-05-18T18:41:51.314Z,100254.02
2019-05-18T18:44:24.304Z,100247.27
2019-05-18T18:46:57.173Z,100239.73
2019-05-18T18:49:30.027Z,100239.38
2019-05-18T18:52:02.949Z,100238.13
2019-05-18T18:54:35.813Z,100233.13
2019-05-18T18:57:08.723Z,100239.45
2019-05-18T18:59:41.650Z,100239.53
2019-05-18T19:02:14.530Z,100239.12
2019-05-18T19:04:47.401Z,100239.03
2019-05-18T19:07:20.387Z,100235.02
2019-05-18T19:09:53.385Z,100238.67
2019-05-18T19:12:26.288Z,100246.12
2019-05-18T19:14:59.231Z,100250.03
2019-05-18T19:17:32.282Z,100248.70
2019-05-18T19:20:05.817Z,100249.24
2019-05-18T19:22:38.854Z,100250.91
2019-05-18T19:25:12.161Z,100259.67
2019-05-18T19:27:54.579Z,100271.05
2019-05-18T19:30:20.528Z,100281.60
2019-05-18T19:32:53.323Z,100283.39
2019-05-18T19:35:26.288Z,100282.42
2019-05-18T19:37:59.221Z,100282.56
2019-05-18T19:40:32.175Z,100278.50
2019-05-18T19:43:06.169Z,100285.41
2019-05-18T19:45:39.159Z,100284.94
2019-05-18T19:48:12.078Z,100280.91
2019-05-18T19:50:45.040Z,100277.96
2019-05-18T19:53:18.055Z,100282.84
2019-05-18T19:55:51.796Z,100280.21
2019-05-18T19:58:24.849Z,100282.83
2019-05-18T20:00:58.752Z,100285.73
2019-05-18T20:03:33.025Z,100285.98
2019-05-18T20:06:07.120Z,100288.84
2019-05-18T20:08:39.963Z,100285.88
2019-05-18T20:11:12.997Z,100290.78
2019-05-18T20:13:45.998Z,100299.27
2019-05-18T20:16:18.866Z,100295.01
2019-05-18T20:18:51.770Z,100292.12
2019-05-18T20:21:24.983Z,100293.56
2019-05-18T20:23:58.219Z,100299.95
2019-05-18T20:26:31.663Z,100298.84
2019-05-18T20:29:05.601Z,100293.78
2019-05-18T20:31:38.970Z,100285.20
2019-05-18T20:34:11.854Z,100276.53
2019-05-18T20:36:44.830Z,100276.60
2019-05-18T20:39:17.947Z,100275.73
2019-05-18T20:41:50.921Z,100277.20
2019-05-18T20:44:23.984Z,100273.67
2019-05-18T20:46:57.073Z,100279.97
2019-05-18T20:49:29.966Z,100268.08
2019-05-18T20:52:02.963Z,100266.74
2019-05-18T20:54:35.998Z,100271.08
2019-05-18T20:57:08.959Z,100264.47
2019-05-18T20:59:41.869Z,100270.77
2019-05-18T21:02:14.729Z,100268.17
2019-05-18T21:04:47.775Z,100269.61
2019-05-18T21:07:21.381Z,100262.68
2019-05-18T21:09:54.242Z,100268.94
2019-05-18T21:12:27.093Z,100265.48
2019-05-18T21:15:00.072Z,100266.88
2019-05-18T21:17:33.330Z,100273.69
2019-05-18T21:20:06.981Z,100276.05
2019-05-18T21:22:39.965Z,100274.05
2019-05-18T21:25:13.370Z,100271.55
2019-05-18T21:27:46.328Z,100270.67
2019-05-18T21:30:20.304Z,100272.04
2019-05-18T21:32:53.388Z,100265.49
2019-05-18T21:35:26.453Z,100278.33
2019-05-18T21:38:00.818Z,100285.28
2019-05-18T21:40:33.754Z,100282.48
2019-05-18T21:43:06.617Z,100282.97
2019-05-18T21:45:39.610Z,100281.92
2019-05-18T21:48:12.579Z,100280.19
2019-05-18T21:50:45.520Z,100280.64
2019-05-18T21:53:18.599Z,100282.30
2019-05-18T21:55:51.653Z,100280.49
2019-05-18T21:58:24.523Z,100283.66
2019-05-18T22:00:57.451Z,100275.70
2019-05-18T22:03:30.469Z,100263.67
2019-05-18T22:06:03.609Z,100269.40
2019-05-18T22:08:36.593Z,100268.47
2019-05-18T22:11:09.487Z,100274.31
2019-05-18T22:13:42.475Z,100277.41
2019-05-18T22:16:15.391Z,100284.11
2019-05-18T22:18:48.447Z,100282.19
2019-05-18T22:21:21.343Z,100274.81
2019-05-18T22:23:54.292Z,100278.08
2019-05-18T22:26:27.175Z,100275.98
2019-05-18T22:29:00.080Z,100275.56
2019-05-18T22:31:33.233Z,100271.61
2019-05-18T22:34:09.074Z,100268.61
2019-05-18T22:36:41.987Z,100269.17
2019-05-18T22:39:14.915Z,100272.27
2019-05-18T22:41:47.918Z,100265.69
2019-05-18T22:44:20.999Z,100260.47
2019-05-18T22:46:54.031Z,100258.63
2019-05-18T22:49:27.278Z,100253.03
2019-05-18T22:52:00.107Z,100253.55
2019-05-18T22:54:33.168Z,100258.84
2019-05-18T22:57:06.382Z,100252.58
2019-05-18T22:59:39.247Z,100261.47
2019-05-18T23:02:12.619Z,100247.78
2019-05-18T23:04:45.565Z,100248.16
2019-05-18T23:07:18.498Z,100248.22
2019-05-18T23:09:51.725Z,100243.81
2019-05-18T23:12:24.818Z,100248.28
2019-05-18T23:14:57.865Z,100243.11
2019-05-18T23:17:30.791Z,100248.17
2019-05-18T23:20:03.861Z,100245.59
2019-05-18T23:22:36.976Z,100237.19
2019-05-18T23:25:10.335Z,100234.49
2019-05-18T23:27:43.326Z,100237.14
2019-05-18T23:30:16.448Z,100223.48
2019-05-18T23:32:50.665Z,100223.03
2019-05-18T23:35:23.799Z,100223.50
2019-05-18T23:37:56.910Z,100232.39
2019-05-18T23:40:29.764Z,100219.66
2019-05-18T23:43:02.680Z,100224.53
2019-05-18T23:45:35.895Z,100223.33
2019-05-18T23:48:08.884Z,100222.86
2019-05-18T23:50:41.797Z,100218.86
2019-05-18T23:53:14.596Z,100220.29
2019-05-18T23:55:47.505Z,100222.09
2019-05-18T23:58:20.370Z,100217.36
